sensor_id;sensor_type;location;lat;lon;timestamp;pressure;altitude;pressure_sealevel;temperature;humidity
26087;BME280;13851;43.434;28.338;2022-08-03T00:00:38;99712.00;;;24.85;100.00
26087;BME280;13851;43.434;28.338;2022-08-03T00:03:04;99736.09;;;24.97;100.00
26087;BME280;13851;43.434;28.338;2022-08-03T00:05:31;99751.28;;;25.11;100.00
26087;BME280;13851;43.434;28.338;2022-08-03T00:07:59;99720.72;;;24.89;100.00
26087;BME280;13851;43.434;28.338;2022-08-03T00:10:25;99742.28;;;24.99;100.00
26087;BME280;13851;43.434;28.338;2022-08-03T00:12:52;99756.84;;;25.01;100.00
26087;BME280;13851;43.434;28.338;2022-08-03T00:15:17;99495.69;;;23.46;100.00
26087;BME280;13851;43.434;28.338;2022-08-03T00:17:44;99731.06;;;24.83;100.00
26087;BME280;13851;43.434;28.338;2022-08-03T00:20:10;99707.53;;;24.69;100.00
26087;BME280;13851;43.434;28.338;2022-08-03T00:22:36;99746.47;;;24.86;100.00
26087;BME280;13851;43.434;28.338;2022-08-03T00:25:02;99743.13;;;24.84;100.00
26087;BME280;13851;43.434;28.338;2022-08-03T00:27:28;99738.06;;;24.86;100.00
26087;BME280;13851;43.434;28.338;2022-08-03T00:29:53;99736.69;;;24.83;100.00
26087;BME280;13851;43.434;28.338;2022-08-03T00:32:19;99675.03;;;24.48;100.00
26087;BME280;13851;43.434;28.338;2022-08-03T00:34:45;99736.41;;;24.85;100.00
26087;BME280;13851;43.434;28.338;2022-08-03T00:37:10;99731.06;;;24.83;100.00
26087;BME280;13851;43.434;28.338;2022-08-03T00:39:36;99630.16;;;24.27;100.00
26087;BME280;13851;43.434;28.338;2022-08-03T00:42:05;99730.25;;;24.83;100.00
26087;BME280;13851;43.434;28.338;2022-08-03T00:44:31;99704.19;;;24.67;100.00
26087;BME280;13851;43.434;28.338;2022-08-03T00:46:56;99727.69;;;24.71;100.00
26087;BME280;13851;43.434;28.338;2022-08-03T00:49:22;99300.81;;;22.12;100.00
26087;BME280;13851;43.434;28.338;2022-08-03T00:51:49;99689.56;;;24.45;100.00
26087;BME280;13851;43.434;28.338;2022-08-03T00:54:15;99677.81;;;24.37;100.00
26087;BME280;13851;43.434;28.338;2022-08-03T00:56:41;99728.25;;;24.68;100.00
26087;BME280;13851;43.434;28.338;2022-08-03T00:59:09;99744.22;;;24.57;100.00
26087;BME280;13851;43.434;28.338;2022-08-03T01:01:35;99725.47;;;24.63;100.00
26087;BME280;13851;43.434;28.338;2022-08-03T01:04:00;99720.97;;;24.62;100.00
26087;BME280;13851;43.434;28.338;2022-08-03T01:06:40;99701.06;;;24.48;100.00
26087;BME280;13851;43.434;28.338;2022-08-03T01:11:48;99720.38;;;24.55;100.00
26087;BME280;13851;43.434;28.338;2022-08-03T01:14:23;99722.66;;;24.58;100.00
26087;BME280;13851;43.434;28.338;2022-08-03T01:30:35;99577.91;;;23.45;100.00
26087;BME280;13851;43.434;28.338;2022-08-03T01:33:05;99723.44;;;24.38;100.00
26087;BME280;13851;43.434;28.338;2022-08-03T01:40:51;99717.19;;;24.21;100.00
26087;BME280;13851;43.434;28.338;2022-08-03T01:43:22;99739.63;;;24.31;100.00
26087;BME280;13851;43.434;28.338;2022-08-03T01:45:50;99732.91;;;24.27;100.00
26087;BME280;13851;43.434;28.338;2022-08-03T01:48:16;99742.09;;;24.12;100.00
26087;BME280;13851;43.434;28.338;2022-08-03T01:50:46;99734.31;;;24.29;100.00
26087;BME280;13851;43.434;28.338;2022-08-03T01:53:14;99690.03;;;24.06;100.00
26087;BME280;13851;43.434;28.338;2022-08-03T01:55:45;99705.72;;;24.17;100.00
26087;BME280;13851;43.434;28.338;2022-08-03T01:58:14;99728.16;;;24.27;100.00
26087;BME280;13851;43.434;28.338;2022-08-03T02:00:41;99698.47;;;24.16;100.00
26087;BME280;13851;43.434;28.338;2022-08-03T02:03:08;99727.56;;;24.30;100.00
26087;BME280;13851;43.434;28.338;2022-08-03T02:05:38;99715.84;;;24.28;100.00
26087;BME280;13851;43.434;28.338;2022-08-03T02:08:06;99681.84;;;23.89;100.00
26087;BME280;13851;43.434;28.338;2022-08-03T02:10:35;99699.84;;;24.19;100.00
26087;BME280;13851;43.434;28.338;2022-08-03T02:13:04;99713.84;;;24.24;100.00
26087;BME280;13851;43.434;28.338;2022-08-03T02:15:32;99713.31;;;24.22;100.00
26087;BME280;13851;43.434;28.338;2022-08-03T02:17:59;99719.44;;;24.24;100.00
26087;BME280;13851;43.434;28.338;2022-08-03T02:20:27;99701.81;;;24.18;100.00
26087;BME280;13851;43.434;28.338;2022-08-03T02:22:57;99708.53;;;24.17;100.00
26087;BME280;13851;43.434;28.338;2022-08-03T02:25:23;99713.81;;;24.13;100.00
26087;BME280;13851;43.434;28.338;2022-08-03T02:27:56;99708.25;;;24.19;100.00
26087;BME280;13851;43.434;28.338;2022-08-03T02:30:32;99710.50;;;24.22;100.00
26087;BME280;13851;43.434;28.338;2022-08-03T02:33:02;99729.50;;;24.15;100.00
26087;BME280;13851;43.434;28.338;2022-08-03T02:35:31;99702.63;;;24.08;100.00
26087;BME280;13851;43.434;28.338;2022-08-03T02:38:03;99485.63;;;22.77;100.00
26087;BME280;13851;43.434;28.338;2022-08-03T02:40:30;99729.75;;;24.08;100.00
26087;BME280;13851;43.434;28.338;2022-08-03T02:42:59;99660.00;;;23.81;100.00
26087;BME280;13851;43.434;28.338;2022-08-03T02:45:28;99714.09;;;24.12;100.00
26087;BME280;13851;43.434;28.338;2022-08-03T02:47:59;99705.13;;;24.10;100.00
26087;BME280;13851;43.434;28.338;2022-08-03T02:50:28;99716.88;;;24.02;100.00
26087;BME280;13851;43.434;28.338;2022-08-03T02:52:56;99729.81;;;24.23;100.00
26087;BME280;13851;43.434;28.338;2022-08-03T02:55:25;99730.94;;;24.22;100.00
26087;BME280;13851;43.434;28.338;2022-08-03T02:57:51;99728.13;;;24.17;100.00
26087;BME280;13851;43.434;28.338;2022-08-03T03:00:18;99728.13;;;24.17;100.00
26087;BME280;13851;43.434;28.338;2022-08-03T03:02:46;99736.81;;;24.26;100.00
26087;BME280;13851;43.434;28.338;2022-08-03T03:05:13;99749.44;;;24.28;100.00
26087;BME280;13851;43.434;28.338;2022-08-03T03:07:41;99735.06;;;24.04;100.00
26087;BME280;13851;43.434;28.338;2022-08-03T03:10:07;99712.97;;;24.13;100.00
26087;BME280;13851;43.434;28.338;2022-08-03T03:12:36;99704.03;;;24.11;100.00
26087;BME280;13851;43.434;28.338;2022-08-03T03:15:04;99740.19;;;24.28;100.00
26087;BME280;13851;43.434;28.338;2022-08-03T03:17:32;99748.31;;;24.29;100.00
26087;BME280;13851;43.434;28.338;2022-08-03T03:19:59;99783.03;;;24.28;100.00
26087;BME280;13851;43.434;28.338;2022-08-03T03:22:26;99749.06;;;24.09;100.00
26087;BME280;13851;43.434;28.338;2022-08-03T03:24:53;99722.53;;;24.17;100.00
26087;BME280;13851;43.434;28.338;2022-08-03T03:27:20;99739.91;;;24.34;100.00
26087;BME280;13851;43.434;28.338;2022-08-03T03:29:47;99731.19;;;24.21;100.00
26087;BME280;13851;43.434;28.338;2022-08-03T03:32:17;99495.41;;;22.79;100.00
26087;BME280;13851;43.434;28.338;2022-08-03T03:34:43;99753.06;;;24.29;100.00
26087;BME280;13851;43.434;28.338;2022-08-03T03:37:09;99752.22;;;24.28;100.00
26087;BME280;13851;43.434;28.338;2022-08-03T03:39:35;99744.09;;;24.27;100.00
26087;BME280;13851;43.434;28.338;2022-08-03T03:42:01;99748.31;;;24.34;100.00
26087;BME280;13851;43.434;28.338;2022-08-03T03:44:28;99757.88;;;24.38;100.00
26087;BME280;13851;43.434;28.338;2022-08-03T03:46:56;99727.56;;;24.20;100.00
26087;BME280;13851;43.434;28.338;2022-08-03T03:49:22;99730.97;;;24.32;100.00
26087;BME280;13851;43.434;28.338;2022-08-03T03:51:52;99720.03;;;24.31;100.00
26087;BME280;13851;43.434;28.338;2022-08-03T03:54:18;99572.91;;;22.94;100.00
26087;BME280;13851;43.434;28.338;2022-08-03T03:56:44;99760.75;;;24.69;100.00
26087;BME280;13851;43.434;28.338;2022-08-03T03:59:09;99751.22;;;24.70;100.00
26087;BME280;13851;43.434;28.338;2022-08-03T04:01:35;99748.13;;;24.77;100.00
26087;BME280;13851;43.434;28.338;2022-08-03T04:04:02;99701.91;;;24.54;100.00
26087;BME280;13851;43.434;28.338;2022-08-03T04:06:48;99796.44;;;25.14;100.00
26087;BME280;13851;43.434;28.338;2022-08-03T04:09:34;99767.81;;;25.18;100.00
26087;BME280;13851;43.434;28.338;2022-08-03T04:12:21;99766.69;;;25.34;100.00
26087;BME280;13851;43.434;28.338;2022-08-03T04:14:50;99754.06;;;25.31;100.00
26087;BME280;13851;43.434;28.338;2022-08-03T04:17:20;99777.31;;;25.62;100.00
26087;BME280;13851;43.434;28.338;2022-08-03T04:19:55;99778.41;;;25.72;100.00
26087;BME280;13851;43.434;28.338;2022-08-03T04:22:24;99776.75;;;25.81;100.00
26087;BME280;13851;43.434;28.338;2022-08-03T04:24:56;99559.06;;;24.59;100.00
26087;BME280;13851;43.434;28.338;2022-08-03T04:27:35;99764.66;;;25.85;100.00
26087;BME280;13851;43.434;28.338;2022-08-03T04:30:04;99740.53;;;25.64;100.00
26087;BME280;13851;43.434;28.338;2022-08-03T04:32:30;99773.63;;;25.87;100.00
26087;BME280;13851;43.434;28.338;2022-08-03T04:34:57;99777.53;;;25.91;100.00
26087;BME280;13851;43.434;28.338;2022-08-03T04:37:41;99778.06;;;25.99;100.00
26087;BME280;13851;43.434;28.338;2022-08-03T04:40:21;99796.56;;;26.05;100.00
26087;BME280;13851;43.434;28.338;2022-08-03T04:42:48;99592.63;;;25.00;100.00
26087;BME280;13851;43.434;28.338;2022-08-03T04:45:16;99789.19;;;26.24;100.00
26087;BME280;13851;43.434;28.338;2022-08-03T04:47:43;99789.19;;;26.24;100.00
26087;BME280;13851;43.434;28.338;2022-08-03T04:50:09;99793.69;;;26.20;100.00
26087;BME280;13851;43.434;28.338;2022-08-03T04:52:36;99751.06;;;26.13;100.00
26087;BME280;13851;43.434;28.338;2022-08-03T04:55:02;99789.44;;;26.33;100.00
26087;BME280;13851;43.434;28.338;2022-08-03T04:57:28;99712.16;;;25.91;100.00
26087;BME280;13851;43.434;28.338;2022-08-03T04:59:53;99748.50;;;26.22;100.00
26087;BME280;13851;43.434;28.338;2022-08-03T05:02:21;99750.72;;;26.25;100.00
26087;BME280;13851;43.434;28.338;2022-08-03T05:04:47;99793.88;;;26.54;100.00
26087;BME280;13851;43.434;28.338;2022-08-03T05:07:15;99787.41;;;26.54;100.00
26087;BME280;13851;43.434;28.338;2022-08-03T05:09:41;99793.03;;;26.54;100.00
26087;BME280;13851;43.434;28.338;2022-08-03T05:12:07;99533.50;;;24.96;100.00
26087;BME280;13851;43.434;28.338;2022-08-03T05:14:33;99797.19;;;26.61;100.00
26087;BME280;13851;43.434;28.338;2022-08-03T05:17:07;99738.91;;;26.33;100.00
26087;BME280;13851;43.434;28.338;2022-08-03T05:19:36;99808.66;;;26.70;100.00
26087;BME280;13851;43.434;28.338;2022-08-03T05:22:01;99656.31;;;25.84;100.00
26087;BME280;13851;43.434;28.338;2022-08-03T05:24:34;99782.84;;;26.68;100.00
26087;BME280;13851;43.434;28.338;2022-08-03T05:27:00;99722.91;;;26.28;100.00
26087;BME280;13851;43.434;28.338;2022-08-03T05:29:25;99796.81;;;26.78;100.00
26087;BME280;13851;43.434;28.338;2022-08-03T05:31:51;99801.84;;;26.81;100.00
26087;BME280;13851;43.434;28.338;2022-08-03T05:34:16;99830.53;;;26.83;100.00
26087;BME280;13851;43.434;28.338;2022-08-03T05:36:42;99805.22;;;26.83;100.00
26087;BME280;13851;43.434;28.338;2022-08-03T05:39:07;99530.03;;;25.30;100.00
26087;BME280;13851;43.434;28.338;2022-08-03T05:41:33;99825.38;;;26.95;100.00
26087;BME280;13851;43.434;28.338;2022-08-03T05:43:58;99737.00;;;26.73;100.00
26087;BME280;13851;43.434;28.338;2022-08-03T05:46:24;99748.44;;;26.81;100.00
26087;BME280;13851;43.434;28.338;2022-08-03T05:48:49;99813.88;;;27.31;100.00
26087;BME280;13851;43.434;28.338;2022-08-03T05:51:15;99806.53;;;27.35;100.00
26087;BME280;13851;43.434;28.338;2022-08-03T05:53:42;99754.44;;;27.09;100.00
26087;BME280;13851;43.434;28.338;2022-08-03T05:56:08;99584.97;;;25.96;100.00
26087;BME280;13851;43.434;28.338;2022-08-03T05:58:34;99810.19;;;27.36;100.00
26087;BME280;13851;43.434;28.338;2022-08-03T06:01:00;99583.22;;;26.05;100.00
26087;BME280;13851;43.434;28.338;2022-08-03T06:03:25;99768.22;;;27.10;100.00
26087;BME280;13851;43.434;28.338;2022-08-03T06:05:53;99814.28;;;27.48;100.00
26087;BME280;13851;43.434;28.338;2022-08-03T06:08:21;99731.97;;;27.04;100.00
26087;BME280;13851;43.434;28.338;2022-08-03T06:10:47;99822.09;;;27.57;100.00
26087;BME280;13851;43.434;28.338;2022-08-03T06:13:13;99783.50;;;27.33;100.00
26087;BME280;13851;43.434;28.338;2022-08-03T06:15:39;99823.19;;;27.61;100.00
26087;BME280;13851;43.434;28.338;2022-08-03T06:18:05;99787.69;;;27.36;100.00
26087;BME280;13851;43.434;28.338;2022-08-03T06:20:32;99823.66;;;27.68;100.00
26087;BME280;13851;43.434;28.338;2022-08-03T06:22:58;99804.69;;;27.55;100.00
26087;BME280;13851;43.434;28.338;2022-08-03T06:25:25;99810.25;;;27.60;100.00
26087;BME280;13851;43.434;28.338;2022-08-03T06:27:51;99827.91;;;27.70;100.00
26087;BME280;13851;43.434;28.338;2022-08-03T06:30:18;99811.25;;;27.74;100.00
26087;BME280;13851;43.434;28.338;2022-08-03T06:32:54;99857.00;;;27.90;100.00
26087;BME280;13851;43.434;28.338;2022-08-03T06:35:20;99800.59;;;27.71;100.00
26087;BME280;13851;43.434;28.338;2022-08-03T06:37:49;99829.31;;;27.97;100.00
26087;BME280;13851;43.434;28.338;2022-08-03T06:40:18;99777.97;;;27.81;100.00
26087;BME280;13851;43.434;28.338;2022-08-03T06:42:44;99829.34;;;28.21;100.00
26087;BME280;13851;43.434;28.338;2022-08-03T06:45:11;99811.03;;;28.18;100.00
26087;BME280;13851;43.434;28.338;2022-08-03T06:47:37;99826.31;;;28.41;100.00
26087;BME280;13851;43.434;28.338;2022-08-03T06:50:05;99783.00;;;28.08;100.00
26087;BME280;13851;43.434;28.338;2022-08-03T06:52:31;99738.19;;;27.88;100.00
26087;BME280;13851;43.434;28.338;2022-08-03T06:54:57;99799.66;;;28.05;100.00
26087;BME280;13851;43.434;28.338;2022-08-03T06:57:23;99811.78;;;28.05;100.00
26087;BME280;13851;43.434;28.338;2022-08-03T06:59:49;99801.28;;;28.11;100.00
26087;BME280;13851;43.434;28.338;2022-08-03T07:02:14;99810.31;;;28.08;100.00
26087;BME280;13851;43.434;28.338;2022-08-03T07:04:40;99789.13;;;27.91;100.00
26087;BME280;13851;43.434;28.338;2022-08-03T07:07:06;99826.38;;;28.07;100.00
26087;BME280;13851;43.434;28.338;2022-08-03T07:09:31;99827.56;;;28.25;100.00
26087;BME280;13851;43.434;28.338;2022-08-03T07:11:57;99808.41;;;28.27;100.00
26087;BME280;13851;43.434;28.338;2022-08-03T07:14:23;99783.13;;;28.22;100.00
26087;BME280;13851;43.434;28.338;2022-08-03T07:16:52;99823.94;;;28.48;100.00
26087;BME280;13851;43.434;28.338;2022-08-03T07:19:18;99811.16;;;28.32;100.00
26087;BME280;13851;43.434;28.338;2022-08-03T07:21:43;99805.81;;;28.55;100.00
26087;BME280;13851;43.434;28.338;2022-08-03T07:24:11;99811.38;;;28.60;100.00
26087;BME280;13851;43.434;28.338;2022-08-03T07:26:40;99829.00;;;28.89;100.00
26087;BME280;13851;43.434;28.338;2022-08-03T07:29:06;99591.47;;;27.70;100.00
26087;BME280;13851;43.434;28.338;2022-08-03T07:31:39;99766.91;;;28.94;100.00
26087;BME280;13851;43.434;28.338;2022-08-03T07:34:08;99831.16;;;29.35;100.00
26087;BME280;13851;43.434;28.338;2022-08-03T07:36:36;99823.28;;;29.32;100.00
26087;BME280;13851;43.434;28.338;2022-08-03T07:39:02;99825.16;;;29.23;100.00
26087;BME280;13851;43.434;28.338;2022-08-03T07:41:30;99773.13;;;28.91;100.00
26087;BME280;13851;43.434;28.338;2022-08-03T07:43:56;99805.47;;;29.18;100.00
26087;BME280;13851;43.434;28.338;2022-08-03T07:46:22;99782.38;;;28.97;100.00
26087;BME280;13851;43.434;28.338;2022-08-03T07:48:48;99843.41;;;29.44;100.00
26087;BME280;13851;43.434;28.338;2022-08-03T07:51:14;99850.41;;;29.66;100.00
26087;BME280;13851;43.434;28.338;2022-08-03T07:53:39;99847.44;;;29.90;100.00
26087;BME280;13851;43.434;28.338;2022-08-03T07:56:05;99702.03;;;29.13;100.00
26087;BME280;13851;43.434;28.338;2022-08-03T07:58:34;99828.13;;;30.11;100.00
26087;BME280;13851;43.434;28.338;2022-08-03T08:01:05;99844.56;;;30.22;97.67
26087;BME280;13851;43.434;28.338;2022-08-03T08:03:31;99839.03;;;30.31;93.46
26087;BME280;13851;43.434;28.338;2022-08-03T08:05:56;99632.19;;;29.05;90.71
26087;BME280;13851;43.434;28.338;2022-08-03T08:08:22;99717.50;;;29.62;89.99
26087;BME280;13851;43.434;28.338;2022-08-03T08:10:48;99830.34;;;30.41;86.09
26087;BME280;13851;43.434;28.338;2022-08-03T08:13:13;99862.69;;;30.49;84.18
26087;BME280;13851;43.434;28.338;2022-08-03T08:15:39;99852.22;;;30.36;82.01
26087;BME280;13851;43.434;28.338;2022-08-03T08:18:05;99859.63;;;30.45;85.99
26087;BME280;13851;43.434;28.338;2022-08-03T08:20:35;99837.78;;;30.37;82.84
26087;BME280;13851;43.434;28.338;2022-08-03T08:23:06;99846.56;;;30.49;84.27
26087;BME280;13851;43.434;28.338;2022-08-03T08:25:32;99843.84;;;30.44;85.24
26087;BME280;13851;43.434;28.338;2022-08-03T08:27:59;99846.44;;;30.54;84.25
26087;BME280;13851;43.434;28.338;2022-08-03T08:30:31;99839.22;;;30.62;81.65
26087;BME280;13851;43.434;28.338;2022-08-03T08:32:57;99834.31;;;30.54;80.88
26087;BME280;13851;43.434;28.338;2022-08-03T08:35:23;99833.34;;;30.59;80.01
26087;BME280;13851;43.434;28.338;2022-08-03T08:37:48;99847.19;;;30.88;78.20
26087;BME280;13851;43.434;28.338;2022-08-03T08:40:14;99851.31;;;31.04;79.22
26087;BME280;13851;43.434;28.338;2022-08-03T08:42:43;99837.50;;;31.02;81.49
26087;BME280;13851;43.434;28.338;2022-08-03T08:45:10;99843.94;;;31.17;80.95
26087;BME280;13851;43.434;28.338;2022-08-03T08:47:43;99842.66;;;31.23;78.61
26087;BME280;13851;43.434;28.338;2022-08-03T08:50:13;99853.25;;;31.31;73.66
26087;BME280;13851;43.434;28.338;2022-08-03T08:52:46;99871.38;;;31.30;77.05
26087;BME280;13851;43.434;28.338;2022-08-03T08:55:13;99848.84;;;31.25;75.50
26087;BME280;13851;43.434;28.338;2022-08-03T08:57:51;99827.09;;;30.62;78.02
26087;BME280;13851;43.434;28.338;2022-08-03T09:00:24;99817.22;;;30.59;82.37
26087;BME280;13851;43.434;28.338;2022-08-03T09:02:49;99850.75;;;30.79;82.89
26087;BME280;13851;43.434;28.338;2022-08-03T09:05:16;99763.25;;;30.19;82.36
26087;BME280;13851;43.434;28.338;2022-08-03T09:07:45;99840.81;;;30.82;80.72
26087;BME280;13851;43.434;28.338;2022-08-03T09:10:13;99849.44;;;30.99;78.43
26087;BME280;13851;43.434;28.338;2022-08-03T09:12:44;99696.78;;;30.08;73.21
26087;BME280;13851;43.434;28.338;2022-08-03T09:15:25;99843.94;;;31.17;73.07
26087;BME280;13851;43.434;28.338;2022-08-03T09:17:53;99853.13;;;31.36;72.45
26087;BME280;13851;43.434;28.338;2022-08-03T09:20:26;99790.34;;;31.20;75.94
26087;BME280;13851;43.434;28.338;2022-08-03T09:22:53;99860.50;;;31.68;73.43
26087;BME280;13851;43.434;28.338;2022-08-03T09:25:28;99786.56;;;31.02;73.22
26087;BME280;13851;43.434;28.338;2022-08-03T09:28:14;99816.06;;;31.10;70.00
26087;BME280;13851;43.434;28.338;2022-08-03T09:30:57;99849.91;;;31.29;68.50
26087;BME280;13851;43.434;28.338;2022-08-03T09:33:24;99848.56;;;31.49;69.66
26087;BME280;13851;43.434;28.338;2022-08-03T09:35:50;99838.72;;;31.69;69.02
26087;BME280;13851;43.434;28.338;2022-08-03T09:38:24;99836.63;;;31.83;65.65
26087;BME280;13851;43.434;28.338;2022-08-03T09:40:57;99834.13;;;31.81;65.38
26087;BME280;13851;43.434;28.338;2022-08-03T09:43:23;99824.19;;;31.39;66.22
26087;BME280;13851;43.434;28.338;2022-08-03T09:46:02;99829.97;;;31.34;68.11
26087;BME280;13851;43.434;28.338;2022-08-03T09:48:30;99652.06;;;30.38;70.40
26087;BME280;13851;43.434;28.338;2022-08-03T09:51:01;99830.16;;;31.60;66.75
26087;BME280;13851;43.434;28.338;2022-08-03T09:53:28;99770.25;;;31.44;66.04
26087;BME280;13851;43.434;28.338;2022-08-03T09:55:55;99820.88;;;31.91;65.58
26087;BME280;13851;43.434;28.338;2022-08-03T09:58:22;99810.50;;;31.86;65.37
26087;BME280;13851;43.434;28.338;2022-08-03T10:00:52;99843.81;;;32.12;61.08
26087;BME280;13851;43.434;28.338;2022-08-03T10:03:18;99834.19;;;32.21;59.39
26087;BME280;13851;43.434;28.338;2022-08-03T10:05:47;99822.94;;;32.07;57.90
26087;BME280;13851;43.434;28.338;2022-08-03T10:08:18;99826.44;;;32.04;59.08
26087;BME280;13851;43.434;28.338;2022-08-03T10:10:47;99837.56;;;32.32;57.42
26087;BME280;13851;43.434;28.338;2022-08-03T10:13:20;99835.31;;;32.60;54.62
26087;BME280;13851;43.434;28.338;2022-08-03T10:15:46;99816.31;;;32.69;51.83
26087;BME280;13851;43.434;28.338;2022-08-03T10:18:18;99831.38;;;32.87;50.29
26087;BME280;13851;43.434;28.338;2022-08-03T10:20:58;99834.59;;;33.11;50.32
26087;BME280;13851;43.434;28.338;2022-08-03T10:23:27;99808.38;;;33.15;50.79
26087;BME280;13851;43.434;28.338;2022-08-03T10:26:01;99804.88;;;33.18;48.20
26087;BME280;13851;43.434;28.338;2022-08-03T10:28:34;99805.88;;;33.22;44.85
26087;BME280;13851;43.434;28.338;2022-08-03T10:31:03;99808.53;;;33.27;45.75
26087;BME280;13851;43.434;28.338;2022-08-03T10:33:37;99817.88;;;33.36;45.28
26087;BME280;13851;43.434;28.338;2022-08-03T10:36:06;99807.22;;;32.98;45.78
26087;BME280;13851;43.434;28.338;2022-08-03T10:38:40;99806.50;;;32.84;45.58
26087;BME280;13851;43.434;28.338;2022-08-03T10:41:11;99793.03;;;32.98;44.53
26087;BME280;13851;43.434;28.338;2022-08-03T10:46:14;99583.84;;;31.86;44.71
26087;BME280;13851;43.434;28.338;2022-08-03T10:48:41;99792.31;;;33.36;43.08
26087;BME280;13851;43.434;28.338;2022-08-03T10:51:10;99781.47;;;33.47;41.80
26087;BME280;13851;43.434;28.338;2022-08-03T10:53:41;99798.50;;;33.55;43.84
26087;BME280;13851;43.434;28.338;2022-08-03T10:59:18;99662.97;;;32.83;41.72
26087;BME280;13851;43.434;28.338;2022-08-03T11:01:52;99802.16;;;33.73;39.73
26087;BME280;13851;43.434;28.338;2022-08-03T11:04:20;99583.69;;;32.34;40.19
26087;BME280;13851;43.434;28.338;2022-08-03T11:07:18;99792.03;;;33.93;40.17
26087;BME280;13851;43.434;28.338;2022-08-03T11:09:49;99797.31;;;34.21;39.58
26087;BME280;13851;43.434;28.338;2022-08-03T11:14:48;99810.59;;;34.46;39.01
26087;BME280;13851;43.434;28.338;2022-08-03T11:17:14;99792.88;;;34.70;37.89
26087;BME280;13851;43.434;28.338;2022-08-03T11:19:48;99764.44;;;34.40;36.39
26087;BME280;13851;43.434;28.338;2022-08-03T11:22:15;99786.88;;;34.33;36.56
26087;BME280;13851;43.434;28.338;2022-08-03T11:27:17;99752.44;;;33.06;37.09
26087;BME280;13851;43.434;28.338;2022-08-03T11:30:22;99735.38;;;32.63;43.13
26087;BME280;13851;43.434;28.338;2022-08-03T11:32:56;99784.63;;;32.67;56.58
26087;BME280;13851;43.434;28.338;2022-08-03T11:35:56;99803.97;;;32.56;54.15
26087;BME280;13851;43.434;28.338;2022-08-03T11:38:22;99786.88;;;32.39;66.01
26087;BME280;13851;43.434;28.338;2022-08-03T11:40:53;99742.97;;;31.26;88.82
26087;BME280;13851;43.434;28.338;2022-08-03T11:46:19;99786.03;;;30.09;100.00
26087;BME280;13851;43.434;28.338;2022-08-03T11:48:48;99776.09;;;29.84;100.00
26087;BME280;13851;43.434;28.338;2022-08-03T11:51:27;99772.59;;;29.60;100.00
26087;BME280;13851;43.434;28.338;2022-08-03T11:54:02;99737.00;;;29.12;100.00
26087;BME280;13851;43.434;28.338;2022-08-03T11:56:45;99774.69;;;29.03;100.00
26087;BME280;13851;43.434;28.338;2022-08-03T11:59:15;99773.91;;;28.78;100.00
26087;BME280;13851;43.434;28.338;2022-08-03T12:01:42;99792.06;;;28.72;100.00
26087;BME280;13851;43.434;28.338;2022-08-03T12:04:08;99733.44;;;28.69;100.00
26087;BME280;13851;43.434;28.338;2022-08-03T12:06:34;99766.59;;;29.15;100.00
26087;BME280;13851;43.434;28.338;2022-08-03T12:09:19;99705.53;;;29.05;100.00
26087;BME280;13851;43.434;28.338;2022-08-03T12:11:49;99771.78;;;29.59;100.00
26087;BME280;13851;43.434;28.338;2022-08-03T12:14:16;99773.66;;;29.77;100.00
26087;BME280;13851;43.434;28.338;2022-08-03T12:16:46;99750.66;;;29.70;100.00
26087;BME280;13851;43.434;28.338;2022-08-03T12:19:12;99754.63;;;29.83;100.00
26087;BME280;13851;43.434;28.338;2022-08-03T12:21:48;99769.28;;;29.99;100.00
26087;BME280;13851;43.434;28.338;2022-08-03T12:24:14;99760.69;;;29.63;100.00
26087;BME280;13851;43.434;28.338;2022-08-03T12:26:48;99544.84;;;27.83;100.00
26087;BME280;13851;43.434;28.338;2022-08-03T12:29:21;99775.53;;;29.03;100.00
26087;BME280;13851;43.434;28.338;2022-08-03T12:31:49;99705.88;;;28.66;100.00
26087;BME280;13851;43.434;28.338;2022-08-03T12:34:15;99737.25;;;28.59;100.00
26087;BME280;13851;43.434;28.338;2022-08-03T12:36:52;99753.63;;;28.38;100.00
26087;BME280;13851;43.434;28.338;2022-08-03T12:39:22;99753.34;;;28.59;100.00
26087;BME280;13851;43.434;28.338;2022-08-03T12:41:52;99749.59;;;29.01;100.00
26087;BME280;13851;43.434;28.338;2022-08-03T12:44:37;99633.69;;;28.51;100.00
26087;BME280;13851;43.434;28.338;2022-08-03T12:47:03;99749.44;;;29.11;100.00
26087;BME280;13851;43.434;28.338;2022-08-03T12:49:48;99531.34;;;27.61;100.00
26087;BME280;13851;43.434;28.338;2022-08-03T12:52:15;99736.28;;;28.88;100.00
26087;BME280;13851;43.434;28.338;2022-08-03T12:54:42;99766.53;;;28.82;100.00
26087;BME280;13851;43.434;28.338;2022-08-03T12:57:18;99812.25;;;28.79;100.00
26087;BME280;13851;43.434;28.338;2022-08-03T12:59:44;99752.00;;;28.32;100.00
26087;BME280;13851;43.434;28.338;2022-08-03T13:02:20;99758.50;;;28.70;100.00
26087;BME280;13851;43.434;28.338;2022-08-03T13:04:51;99672.81;;;28.34;100.00
26087;BME280;13851;43.434;28.338;2022-08-03T13:07:18;99752.03;;;28.70;100.00
26087;BME280;13851;43.434;28.338;2022-08-03T13:09:48;99751.19;;;28.88;100.00
26087;BME280;13851;43.434;28.338;2022-08-03T13:12:17;99758.81;;;29.07;100.00
26087;BME280;13851;43.434;28.338;2022-08-03T13:14:46;99770.56;;;29.14;100.00
26087;BME280;13851;43.434;28.338;2022-08-03T13:17:12;99756.72;;;28.98;100.00
26087;BME280;13851;43.434;28.338;2022-08-03T13:19:40;99762.34;;;28.98;100.00
26087;BME280;13851;43.434;28.338;2022-08-03T13:22:14;99758.00;;;28.87;100.00
26087;BME280;13851;43.434;28.338;2022-08-03T13:24:46;99744.78;;;29.01;100.00
26087;BME280;13851;43.434;28.338;2022-08-03T13:27:13;99746.94;;;29.10;100.00